ROMMA est une association bénévole à but non lucratif. Votre soutien est indispensable : ADHERER à ROMMA ou FAIRE un DON

Briord - (01, Ain)

Bugey (281 m)   Longitude: 05° 29' 13" E   Latitude: 45° 46' 37" N Station partenaire n°15
 

Détail journalier du     <<     >>

Température Precipitation Humidité Pression Vent Dir Rafale Dir. rafale Ensol.
Heure (°C) (mm) (%) (hPa) (km/h) (km/h) (min)
01:00 18.70499994SE26SSE0
02:00 17.20569992SE16SE0
03:00 15.40629991ESE6ESE0
04:00 16.00599991ESE8SE0
05:00 14.3069998010ESE0
06:00 12.807699800---0
07:00 12.407899803ESE0
08:00 12.707899803SE0
09:00 14.208099800---0
10:00 15.70659981SO11S0
11:00 17.80669982S13S45
12:00 18.00649972ONO13O10
13:00 19.50609975ONO21O45
14:00 19.80649975ONO21NO55
15:00 20.40609975NO21NNO50
16:00 20.90549974NO18ONO50
17:00 20.60589973ONO18ONO20
18:00 20.20599972O15ONO10
19:00 18.70639972O13O0
20:00 17.207199703ONO0
21:00 15.407799905S0
22:00 13.408499903SSE0
23:00 12.8086100003S0
minuit 12.7088100100---0

Graphique du 23-04-2019

 

Serveur OMMA